Time,TemperatureF,DewpointF,PressureIn,WindDirection,WindDirectionDegrees,WindSpeedMPH,WindSpeedGustMPH,Humidity,HourlyPrecipIn,Conditions,Clouds,dailyrainin,SoftwareType,DateUTC
2013-10-31 00:01:00,61.9,61.9,29.91,NE,55,2.7,2.7,100,0.00,,,0.00,VWS V13.01,2013-10-31 05:01:00,
2013-10-31 00:06:00,61.9,61.9,29.91,NE,52,3.1,3.1,100,0.00,,,0.00,VWS V13.01,2013-10-31 05:06:00,
2013-10-31 00:11:00,61.9,61.9,29.88,NE,54,0.0,3.6,100,0.00,,,0.00,VWS V13.01,2013-10-31 05:11:00,
2013-10-31 00:16:00,61.9,61.9,29.88,NE,53,3.6,4.0,100,0.00,,,0.00,VWS V13.01,2013-10-31 05:16:00,
2013-10-31 00:21:00,61.9,61.9,29.88,NE,40,2.7,3.1,100,0.00,,,0.00,VWS V13.01,2013-10-31 05:21:00,
2013-10-31 00:26:00,62.1,62.1,29.88,NE,47,0.0,0.0,100,0.00,,,0.00,VWS V13.01,2013-10-31 05:26:00,
2013-10-31 00:31:00,62.1,62.1,29.88,East,82,0.0,0.0,100,0.00,,,0.00,VWS V13.01,2013-10-31 05:31:00,
2013-10-31 00:36:00,62.1,62.1,29.88,NE,51,2.2,3.1,100,0.00,,,0.00,VWS V13.01,2013-10-31 05:36:00,
2013-10-31 00:41:00,62.1,62.1,29.88,ENE,60,2.2,2.7,100,0.00,,,0.00,VWS V13.01,2013-10-31 05:41:00,
2013-10-31 00:45:00,62.1,62.1,29.88,ENE,58,2.2,3.6,100,0.00,,,0.00,VWS V13.01,2013-10-31 05:45:00,
2013-10-31 00:50:00,62.3,62.3,29.88,NE,47,0.0,0.0,100,0.00,,,0.00,VWS V13.01,2013-10-31 05:50:00,
2013-10-31 00:55:00,62.3,62.3,29.85,NE,37,0.0,3.1,100,0.00,,,0.00,VWS V13.01,2013-10-31 05:55:00,
2013-10-31 01:00:00,62.3,62.3,29.85,NE,35,4.0,4.0,100,0.00,,,0.00,VWS V13.01,2013-10-31 06:00:00,
2013-10-31 01:05:00,62.3,62.3,29.85,ENE,58,2.2,3.1,100,0.00,,,0.00,VWS V13.01,2013-10-31 06:05:00,
2013-10-31 01:10:00,62.3,62.3,29.85,NE,39,2.7,3.1,100,0.00,,,0.00,VWS V13.01,2013-10-31 06:10:00,
2013-10-31 01:15:00,62.5,62.5,29.85,NE,35,2.2,2.2,100,0.00,,,0.00,VWS V13.01,2013-10-31 06:15:00,
2013-10-31 01:20:00,62.5,62.5,29.85,NE,44,2.7,2.7,100,0.00,,,0.00,VWS V13.01,2013-10-31 06:20:00,
2013-10-31 01:25:00,62.5,62.5,29.85,NE,38,0.0,0.0,100,0.00,,,0.00,VWS V13.01,2013-10-31 06:25:00,
2013-10-31 01:30:00,62.5,62.5,29.85,North,3,2.7,3.1,100,0.00,,,0.00,VWS V13.01,2013-10-31 06:30:00,
2013-10-31 01:35:00,62.5,62.5,29.85,NE,43,3.1,6.3,100,0.00,,,0.00,VWS V13.01,2013-10-31 06:35:00,
2013-10-31 01:40:00,62.5,62.5,29.85,NE,43,3.6,3.6,100,0.00,,,0.00,VWS V13.01,2013-10-31 06:40:00,
2013-10-31 01:45:00,62.5,62.5,29.82,NE,44,4.9,6.3,100,0.00,,,0.00,VWS V13.01,2013-10-31 06:45:00,
2013-10-31 01:50:00,62.5,62.5,29.82,NNE,32,3.6,4.9,100,0.00,,,0.00,VWS V13.01,2013-10-31 06:50:00,
2013-10-31 01:55:00,62.5,62.5,29.82,ENE,67,0.0,0.0,100,0.00,,,0.00,VWS V13.01,2013-10-31 06:55:00,
2013-10-31 02:00:00,62.5,62.5,29.82,NE,45,0.0,2.7,100,0.00,,,0.00,VWS V13.01,2013-10-31 07:00:00,
2013-10-31 02:05:00,62.6,62.6,29.82,ENE,65,3.6,3.6,100,0.00,,,0.04,VWS V13.01,2013-10-31 07:05:00,
2013-10-31 02:10:00,62.6,62.6,29.82,NE,52,3.6,3.6,100,0.04,,,0.04,VWS V13.01,2013-10-31 07:10:00,
2013-10-31 02:15:00,62.6,62.6,29.82,ENE,57,3.1,5.4,100,0.04,,,0.04,VWS V13.01,2013-10-31 07:15:00,
2013-10-31 02:20:00,62.6,62.6,29.82,ENE,66,2.7,3.6,100,0.04,,,0.04,VWS V13.01,2013-10-31 07:20:00,
2013-10-31 02:25:00,62.6,62.6,29.82,ENE,78,2.7,3.6,100,0.04,,,0.04,VWS V13.01,2013-10-31 07:25:00,
2013-10-31 02:30:00,62.6,62.6,29.79,NE,36,2.7,3.6,100,0.04,,,0.04,VWS V13.01,2013-10-31 07:30:00,
2013-10-31 02:35:00,62.6,62.6,29.79,North,2,5.8,5.8,100,0.04,,,0.04,VWS V13.01,2013-10-31 07:35:00,
2013-10-31 02:40:00,62.8,62.8,29.79,NE,44,4.0,4.0,100,0.04,,,0.04,VWS V13.01,2013-10-31 07:40:00,
2013-10-31 02:45:00,62.8,62.8,29.76,ENE,71,3.6,4.0,100,0.04,,,0.04,VWS V13.01,2013-10-31 07:45:00,
2013-10-31 02:50:00,63.0,63.0,29.76,NNE,27,5.8,5.8,100,0.04,,,0.04,VWS V13.01,2013-10-31 07:50:00,
2013-10-31 02:55:00,63.0,63.0,29.76,NE,34,2.2,4.0,100,0.04,,,0.04,VWS V13.01,2013-10-31 07:55:00,
2013-10-31 03:00:00,63.0,63.0,29.76,NNE,33,3.1,3.1,100,0.04,,,0.04,VWS V13.01,2013-10-31 08:00:00,
2013-10-31 03:05:00,63.0,63.0,29.76,NE,44,0.0,0.0,100,0.04,,,0.04,VWS V13.01,2013-10-31 08:05:00,
2013-10-31 03:10:00,63.0,63.0,29.76,NE,44,0.0,0.0,100,0.00,,,0.04,VWS V13.01,2013-10-31 08:10:00,
2013-10-31 03:15:00,63.0,63.0,29.76,NNE,16,3.6,4.0,100,0.00,,,0.04,VWS V13.01,2013-10-31 08:15:00,
2013-10-31 03:20:00,63.0,63.0,29.76,NNE,20,2.7,2.7,100,0.00,,,0.04,VWS V13.01,2013-10-31 08:20:00,
2013-10-31 03:25:00,63.2,63.2,29.76,North,4,0.0,0.0,100,0.00,,,0.04,VWS V13.01,2013-10-31 08:25:00,
2013-10-31 03:30:00,63.2,63.2,29.73,ENE,72,0.0,2.7,100,0.00,,,0.04,VWS V13.01,2013-10-31 08:30:00,
2013-10-31 03:35:00,63.2,63.2,29.73,ESE,111,0.0,0.0,100,0.00,,,0.04,VWS V13.01,2013-10-31 08:35:00,
2013-10-31 03:40:00,63.4,63.4,29.73,ESE,111,0.0,0.0,100,0.00,,,0.04,VWS V13.01,2013-10-31 08:40:00,
2013-10-31 03:45:00,63.4,63.4,29.76,ESE,111,0.0,0.0,100,0.00,,,0.04,VWS V13.01,2013-10-31 08:45:00,
2013-10-31 03:50:00,63.4,63.4,29.76,East,85,0.0,0.0,100,0.04,,,0.08,VWS V13.01,2013-10-31 08:50:00,
2013-10-31 03:55:00,63.4,63.4,29.76,East,85,0.0,0.0,100,0.04,,,0.08,VWS V13.01,2013-10-31 08:55:00,
2013-10-31 04:00:00,63.4,63.4,29.73,North,352,0.0,0.0,100,0.04,,,0.08,VWS V13.01,2013-10-31 09:00:00,
2013-10-31 04:05:00,63.4,63.4,29.73,NNE,13,2.7,2.7,100,0.04,,,0.08,VWS V13.01,2013-10-31 09:05:00,
2013-10-31 04:10:00,63.4,63.4,29.73,ENE,61,0.0,0.0,100,0.04,,,0.08,VWS V13.01,2013-10-31 09:10:00,
2013-10-31 04:15:00,63.4,63.4,29.70,NE,47,0.0,0.0,100,0.04,,,0.08,VWS V13.01,2013-10-31 09:15:00,
2013-10-31 04:20:00,63.4,63.4,29.70,NE,47,0.0,0.0,100,0.04,,,0.08,VWS V13.01,2013-10-31 09:20:00,
2013-10-31 04:25:00,63.4,63.4,29.70,NE,47,0.0,0.0,100,0.04,,,0.08,VWS V13.01,2013-10-31 09:25:00,
2013-10-31 04:30:00,63.4,63.4,29.70,NE,47,0.0,0.0,100,0.04,,,0.08,VWS V13.01,2013-10-31 09:30:00,
2013-10-31 04:35:00,63.4,63.4,29.70,NE,47,0.0,0.0,100,0.04,,,0.08,VWS V13.01,2013-10-31 09:35:00,
2013-10-31 04:40:00,63.4,63.4,29.70,NE,47,0.0,0.0,100,0.04,,,0.08,VWS V13.01,2013-10-31 09:40:00,
2013-10-31 04:45:00,63.4,63.4,29.70,NE,47,0.0,0.0,100,0.04,,,0.08,VWS V13.01,2013-10-31 09:45:00,
2013-10-31 04:50:00,63.4,63.4,29.70,NE,50,0.0,2.7,100,0.04,,,0.08,VWS V13.01,2013-10-31 09:50:00,
2013-10-31 04:55:00,63.4,63.4,29.70,NE,50,0.0,0.0,100,0.00,,,0.08,VWS V13.01,2013-10-31 09:55:00,
2013-10-31 05:00:00,63.4,63.4,29.70,NE,41,0.0,0.0,100,0.00,,,0.08,VWS V13.01,2013-10-31 10:00:00,
2013-10-31 05:05:00,63.4,63.4,29.70,NE,41,0.0,0.0,100,0.00,,,0.08,VWS V13.01,2013-10-31 10:05:00,
2013-10-31 05:10:00,63.4,63.4,29.70,NE,34,0.0,0.0,100,0.00,,,0.08,VWS V13.01,2013-10-31 10:10:00,
2013-10-31 05:15:00,63.4,63.4,29.70,NE,34,2.7,2.7,100,0.00,,,0.08,VWS V13.01,2013-10-31 10:15:00,
2013-10-31 05:20:00,63.4,63.4,29.70,NE,37,0.0,0.0,100,0.00,,,0.08,VWS V13.01,2013-10-31 10:20:00,
2013-10-31 05:25:00,63.5,63.5,29.70,NE,37,0.0,0.0,100,0.00,,,0.08,VWS V13.01,2013-10-31 10:25:00,
2013-10-31 05:30:00,63.5,63.5,29.67,NE,37,0.0,0.0,100,0.00,,,0.08,VWS V13.01,2013-10-31 10:30:00,
2013-10-31 05:35:00,63.5,63.5,29.67,NE,41,0.0,0.0,100,0.00,,,0.08,VWS V13.01,2013-10-31 10:35:00,
2013-10-31 05:40:00,63.5,63.5,29.67,NNE,31,0.0,0.0,100,0.00,,,0.08,VWS V13.01,2013-10-31 10:40:00,
2013-10-31 05:45:00,63.5,63.5,29.67,NE,50,0.0,0.0,100,0.00,,,0.08,VWS V13.01,2013-10-31 10:45:00,
2013-10-31 05:50:00,63.5,63.5,29.67,NE,42,0.0,0.0,100,0.00,,,0.08,VWS V13.01,2013-10-31 10:50:00,
2013-10-31 05:55:00,63.5,63.5,29.67,ENE,64,0.0,0.0,100,0.00,,,0.08,VWS V13.01,2013-10-31 10:55:00,
2013-10-31 06:00:00,63.5,63.5,29.67,ENE,62,0.0,0.0,100,0.00,,,0.08,VWS V13.01,2013-10-31 11:00:00,
2013-10-31 06:05:00,63.5,63.5,29.67,NNE,24,0.0,0.0,100,0.00,,,0.08,VWS V13.01,2013-10-31 11:05:00,
2013-10-31 06:10:00,63.7,63.7,29.67,NE,49,2.7,2.7,100,0.00,,,0.08,VWS V13.01,2013-10-31 11:10:00,
2013-10-31 06:15:00,63.7,63.7,29.64,NE,52,0.0,4.0,100,0.00,,,0.08,VWS V13.01,2013-10-31 11:15:00,
2013-10-31 06:20:00,63.7,63.7,29.64,East,85,0.0,0.0,100,0.00,,,0.08,VWS V13.01,2013-10-31 11:20:00,
2013-10-31 06:25:00,63.7,63.7,29.64,ENE,73,0.0,0.0,100,0.00,,,0.08,VWS V13.01,2013-10-31 11:25:00,
2013-10-31 06:30:00,63.7,63.7,29.64,NE,55,0.0,0.0,100,0.00,,,0.08,VWS V13.01,2013-10-31 11:30:00,
2013-10-31 06:35:00,63.7,63.7,29.64,NE,55,0.0,0.0,100,0.00,,,0.08,VWS V13.01,2013-10-31 11:35:00,
2013-10-31 06:40:00,63.7,63.7,29.64,ENE,61,0.0,0.0,100,0.00,,,0.08,VWS V13.01,2013-10-31 11:40:00,
2013-10-31 06:45:00,63.7,63.7,29.64,NE,41,2.2,4.0,100,0.00,,,0.08,VWS V13.01,2013-10-31 11:45:00,
2013-10-31 06:50:00,63.9,63.9,29.64,North,10,2.2,2.7,100,0.00,,,0.08,VWS V13.01,2013-10-31 11:50:00,
2013-10-31 06:55:00,63.9,63.9,29.64,NE,36,2.2,3.1,100,0.00,,,0.08,VWS V13.01,2013-10-31 11:55:00,
2013-10-31 07:00:00,63.7,63.7,29.64,NNE,32,0.0,0.0,100,0.00,,,0.08,VWS V13.01,2013-10-31 12:00:00,
2013-10-31 07:04:00,63.7,63.7,29.64,NNE,32,0.0,0.0,100,0.00,,,0.08,VWS V13.01,2013-10-31 12:04:00,
2013-10-31 07:09:00,63.7,63.7,29.64,North,1,0.0,0.0,100,0.00,,,0.08,VWS V13.01,2013-10-31 12:09:00,
2013-10-31 07:14:00,63.7,63.7,29.64,NE,46,0.0,0.0,100,0.00,,,0.08,VWS V13.01,2013-10-31 12:14:00,
2013-10-31 07:19:00,63.7,63.7,29.64,NNE,22,2.7,2.7,100,0.00,,,0.08,VWS V13.01,2013-10-31 12:19:00,
2013-10-31 07:24:00,63.7,63.7,29.64,North,352,0.0,0.0,100,0.00,,,0.08,VWS V13.01,2013-10-31 12:24:00,
2013-10-31 07:29:00,63.7,63.7,29.64,NNE,30,2.2,2.2,100,0.00,,,0.08,VWS V13.01,2013-10-31 12:29:00,
2013-10-31 07:34:00,63.7,63.7,29.64,NE,39,3.6,3.6,100,0.00,,,0.08,VWS V13.01,2013-10-31 12:34:00,
2013-10-31 07:39:00,63.7,63.7,29.64,NE,37,0.0,0.0,100,0.00,,,0.08,VWS V13.01,2013-10-31 12:39:00,
2013-10-31 07:44:00,63.7,63.7,29.64,NNE,29,0.0,0.0,100,0.00,,,0.08,VWS V13.01,2013-10-31 12:44:00,
2013-10-31 07:49:00,63.7,63.7,29.64,NNE,13,0.0,2.7,100,0.00,,,0.08,VWS V13.01,2013-10-31 12:49:00,
2013-10-31 07:54:00,63.7,63.7,29.64,NE,38,0.0,2.7,100,0.00,,,0.08,VWS V13.01,2013-10-31 12:54:00,
2013-10-31 07:59:00,63.7,63.7,29.61,NE,37,0.0,0.0,100,0.00,,,0.08,VWS V13.01,2013-10-31 12:59:00,
2013-10-31 08:04:00,63.7,63.7,29.61,NE,35,0.0,0.0,100,0.00,,,0.08,VWS V13.01,2013-10-31 13:04:00,
2013-10-31 08:09:00,63.9,63.9,29.61,NE,35,0.0,0.0,100,0.00,,,0.08,VWS V13.01,2013-10-31 13:09:00,
2013-10-31 08:14:00,63.9,63.9,29.64,NNE,17,3.1,3.1,100,0.00,,,0.08,VWS V13.01,2013-10-31 13:14:00,
2013-10-31 08:19:00,63.9,63.9,29.64,NNE,14,0.0,0.0,100,0.00,,,0.08,VWS V13.01,2013-10-31 13:19:00,
2013-10-31 08:24:00,63.9,63.9,29.64,NNE,33,0.0,0.0,100,0.00,,,0.08,VWS V13.01,2013-10-31 13:24:00,
2013-10-31 08:29:00,63.9,63.9,29.61,North,11,0.0,0.0,100,0.00,,,0.08,VWS V13.01,2013-10-31 13:29:00,
2013-10-31 08:34:00,63.9,63.9,29.61,ENE,63,0.0,0.0,100,0.00,,,0.08,VWS V13.01,2013-10-31 13:34:00,
2013-10-31 08:39:00,63.9,63.9,29.61,North,350,0.0,0.0,100,0.00,,,0.08,VWS V13.01,2013-10-31 13:39:00,
2013-10-31 08:44:00,64.1,64.1,29.61,NNW,331,0.0,0.0,100,0.00,,,0.08,VWS V13.01,2013-10-31 13:44:00,
2013-10-31 08:49:00,64.1,64.1,29.61,NNW,331,0.0,0.0,100,0.00,,,0.08,VWS V13.01,2013-10-31 13:49:00,
2013-10-31 08:54:00,64.1,64.1,29.61,NNW,331,0.0,0.0,100,0.00,,,0.08,VWS V13.01,2013-10-31 13:54:00,
2013-10-31 08:59:00,64.3,64.3,29.64,WSW,248,0.0,0.0,100,0.00,,,0.08,VWS V13.01,2013-10-31 13:59:00,
2013-10-31 09:04:00,64.3,64.3,29.64,WSW,248,0.0,0.0,100,0.00,,,0.08,VWS V13.01,2013-10-31 14:04:00,
2013-10-31 09:09:00,64.3,64.3,29.64,WSW,248,0.0,0.0,100,0.00,,,0.08,VWS V13.01,2013-10-31 14:09:00,
2013-10-31 09:14:00,64.3,64.3,29.64,WSW,248,0.0,0.0,100,0.00,,,0.08,VWS V13.01,2013-10-31 14:14:00,
2013-10-31 09:19:00,64.4,64.4,29.64,NNE,25,0.0,0.0,100,0.00,,,0.08,VWS V13.01,2013-10-31 14:19:00,
2013-10-31 09:24:00,64.4,64.4,29.64,NNE,25,0.0,0.0,100,0.00,,,0.08,VWS V13.01,2013-10-31 14:24:00,
2013-10-31 09:29:00,64.4,64.4,29.64,ENE,63,0.0,0.0,100,0.00,,,0.08,VWS V13.01,2013-10-31 14:29:00,
2013-10-31 09:34:00,64.4,64.4,29.64,NE,51,0.0,0.0,100,0.00,,,0.08,VWS V13.01,2013-10-31 14:34:00,
2013-10-31 09:39:00,64.4,64.4,29.64,NE,51,0.0,0.0,100,0.00,,,0.08,VWS V13.01,2013-10-31 14:39:00,
2013-10-31 09:44:00,64.6,64.6,29.64,NE,47,0.0,0.0,100,0.00,,,0.08,VWS V13.01,2013-10-31 14:44:00,
2013-10-31 09:49:00,64.6,64.6,29.64,North,10,0.0,0.0,100,0.00,,,0.08,VWS V13.01,2013-10-31 14:49:00,
2013-10-31 09:54:00,64.8,64.8,29.64,ENE,58,0.0,0.0,100,0.00,,,0.08,VWS V13.01,2013-10-31 14:54:00,
2013-10-31 09:59:00,65.0,65.0,29.64,ENE,70,0.0,0.0,100,0.00,,,0.08,VWS V13.01,2013-10-31 14:59:00,
2013-10-31 10:04:00,65.2,65.2,29.64,NE,39,3.6,3.6,100,0.00,,,0.08,VWS V13.01,2013-10-31 15:04:00,
2013-10-31 10:09:00,65.3,65.3,29.64,ESE,111,3.1,3.1,100,0.00,,,0.08,VWS V13.01,2013-10-31 15:09:00,
2013-10-31 10:14:00,65.5,65.5,29.61,ENE,75,0.0,0.0,100,0.00,,,0.08,VWS V13.01,2013-10-31 15:14:00,
2013-10-31 10:19:00,65.5,65.5,29.61,ENE,78,2.7,3.1,100,0.00,,,0.08,VWS V13.01,2013-10-31 15:19:00,
2013-10-31 10:24:00,65.7,65.7,29.61,East,82,2.2,2.2,100,0.00,,,0.08,VWS V13.01,2013-10-31 15:24:00,
2013-10-31 10:29:00,65.9,65.9,29.64,ENE,73,0.0,0.0,100,0.00,,,0.08,VWS V13.01,2013-10-31 15:29:00,
2013-10-31 10:34:00,66.1,66.1,29.64,East,95,0.0,0.0,100,0.00,,,0.08,VWS V13.01,2013-10-31 15:34:00,
2013-10-31 10:39:00,66.4,66.4,29.64,SE,127,2.7,2.7,100,0.00,,,0.08,VWS V13.01,2013-10-31 15:39:00,
2013-10-31 10:44:00,66.8,66.8,29.61,East,88,0.0,0.0,100,0.00,,,0.08,VWS V13.01,2013-10-31 15:44:00,
2013-10-31 10:49:00,67.3,67.3,29.61,East,80,2.7,2.7,100,0.00,,,0.08,VWS V13.01,2013-10-31 15:49:00,
2013-10-31 10:54:00,67.3,67.3,29.61,ESE,118,4.0,4.0,100,0.00,,,0.08,VWS V13.01,2013-10-31 15:54:00,
2013-10-31 10:59:00,67.1,67.1,29.61,ENE,59,4.0,4.0,100,0.00,,,0.08,VWS V13.01,2013-10-31 15:59:00,
2013-10-31 11:04:00,67.1,67.1,29.61,SSE,159,0.0,0.0,100,0.00,,,0.08,VWS V13.01,2013-10-31 16:04:00,
2013-10-31 11:09:00,67.0,67.0,29.61,SE,135,0.0,0.0,100,0.00,,,0.08,VWS V13.01,2013-10-31 16:09:00,
2013-10-31 11:14:00,67.0,67.0,29.61,ENE,72,3.1,3.1,100,0.00,,,0.08,VWS V13.01,2013-10-31 16:14:00,
2013-10-31 11:19:00,67.1,67.1,29.61,SE,127,0.0,2.7,100,0.00,,,0.08,VWS V13.01,2013-10-31 16:19:00,
2013-10-31 11:24:00,67.3,67.3,29.61,SSE,167,0.0,0.0,100,0.00,,,0.08,VWS V13.01,2013-10-31 16:24:00,
2013-10-31 11:29:00,67.5,67.5,29.61,SE,131,0.0,0.0,100,0.00,,,0.08,VWS V13.01,2013-10-31 16:29:00,
2013-10-31 11:34:00,67.9,67.9,29.61,SE,136,0.0,2.2,100,0.00,,,0.08,VWS V13.01,2013-10-31 16:34:00,
2013-10-31 11:39:00,68.2,68.2,29.61,ENE,60,2.7,4.0,100,0.00,,,0.08,VWS V13.01,2013-10-31 16:39:00,
2013-10-31 11:44:00,68.8,68.8,29.58,East,87,4.0,4.0,100,0.00,,,0.08,VWS V13.01,2013-10-31 16:44:00,
2013-10-31 11:49:00,68.9,68.9,29.58,SSE,150,0.0,0.0,100,0.00,,,0.08,VWS V13.01,2013-10-31 16:49:00,
2013-10-31 11:54:00,67.9,67.9,29.58,NE,41,2.2,3.1,100,0.00,,,0.08,VWS V13.01,2013-10-31 16:54:00,
2013-10-31 11:59:00,69.5,69.5,29.58,ENE,74,3.6,3.6,100,0.00,,,0.08,VWS V13.01,2013-10-31 16:59:00,
2013-10-31 12:04:00,69.7,69.7,29.58,ENE,65,2.7,4.0,100,0.00,,,0.08,VWS V13.01,2013-10-31 17:04:00,
2013-10-31 12:09:00,69.7,68.8,29.58,East,88,3.1,3.1,97,0.00,,,0.08,VWS V13.01,2013-10-31 17:09:00,
2013-10-31 12:14:00,70.4,69.2,29.58,East,98,3.6,3.6,96,0.00,,,0.08,VWS V13.01,2013-10-31 17:14:00,
2013-10-31 12:19:00,70.9,68.5,29.58,ENE,65,3.1,3.1,92,0.00,,,0.08,VWS V13.01,2013-10-31 17:19:00,
2013-10-31 12:24:00,71.3,66.9,29.58,South,188,5.8,5.8,86,0.00,,,0.08,VWS V13.01,2013-10-31 17:24:00,
2013-10-31 12:29:00,70.9,66.9,29.58,East,88,3.6,4.0,87,0.00,,,0.08,VWS V13.01,2013-10-31 17:29:00,
2013-10-31 12:34:00,70.9,66.9,29.58,East,94,3.1,3.1,87,0.00,,,0.08,VWS V13.01,2013-10-31 17:34:00,
2013-10-31 12:39:00,71.1,67.0,29.58,SE,132,4.0,4.0,87,0.00,,,0.08,VWS V13.01,2013-10-31 17:39:00,
2013-10-31 12:44:00,71.5,67.1,29.55,East,97,3.6,3.6,86,0.00,,,0.08,VWS V13.01,2013-10-31 17:44:00,
2013-10-31 12:49:00,71.6,67.2,29.55,SSE,150,6.3,6.3,86,0.00,,,0.08,VWS V13.01,2013-10-31 17:49:00,
2013-10-31 12:54:00,72.0,66.9,29.55,South,183,5.4,5.8,84,0.00,,,0.08,VWS V13.01,2013-10-31 17:54:00,
2013-10-31 12:59:00,72.4,66.9,29.55,SSE,147,5.4,6.3,83,0.00,,,0.08,VWS V13.01,2013-10-31 17:59:00,
2013-10-31 13:04:00,72.9,66.7,29.55,ESE,119,2.7,4.0,81,0.00,,,0.08,VWS V13.01,2013-10-31 18:04:00,
2013-10-31 13:09:00,73.6,66.7,29.55,SE,135,5.8,6.3,79,0.00,,,0.08,VWS V13.01,2013-10-31 18:09:00,
2013-10-31 13:14:00,74.5,66.8,29.52,SSE,167,4.0,4.0,77,0.00,,,0.08,VWS V13.01,2013-10-31 18:14:00,
2013-10-31 13:19:00,75.1,66.6,29.52,SSE,168,6.3,6.3,75,0.00,,,0.08,VWS V13.01,2013-10-31 18:19:00,
2013-10-31 13:24:00,75.2,65.6,29.52,WSW,253,7.6,8.7,72,0.00,,,0.08,VWS V13.01,2013-10-31 18:24:00,
2013-10-31 13:28:00,75.4,65.4,29.52,SSE,168,8.3,8.3,71,0.00,,,0.08,VWS V13.01,2013-10-31 18:28:00,
2013-10-31 13:33:00,75.8,62.8,29.52,SSW,212,9.6,9.6,64,0.00,,,0.08,VWS V13.01,2013-10-31 18:33:00,
2013-10-31 13:38:00,76.1,63.5,29.52,South,185,6.3,6.3,65,0.00,,,0.08,VWS V13.01,2013-10-31 18:38:00,
2013-10-31 13:43:00,76.3,62.4,29.52,SW,219,5.8,8.3,62,0.00,,,0.08,VWS V13.01,2013-10-31 18:43:00,
2013-10-31 13:48:00,75.8,61.4,29.52,SW,227,10.1,15.9,61,0.00,,,0.08,VWS V13.01,2013-10-31 18:48:00,
2013-10-31 13:53:00,75.2,60.4,29.52,SW,234,12.8,12.8,60,0.00,,,0.08,VWS V13.01,2013-10-31 18:53:00,
2013-10-31 13:58:00,75.6,60.3,29.49,WSW,252,7.6,14.5,59,0.00,,,0.08,VWS V13.01,2013-10-31 18:58:00,
2013-10-31 14:03:00,76.1,59.8,29.49,SSW,198,8.7,10.1,57,0.00,,,0.08,VWS V13.01,2013-10-31 19:03:00,
2013-10-31 14:08:00,76.5,59.2,29.49,WSW,240,8.7,10.5,55,0.00,,,0.08,VWS V13.01,2013-10-31 19:08:00,
2013-10-31 14:13:00,76.5,59.7,29.49,SW,229,8.7,8.7,56,0.00,,,0.08,VWS V13.01,2013-10-31 19:13:00,
2013-10-31 14:18:00,76.3,59.5,29.49,SW,231,10.1,11.9,56,0.00,,,0.08,VWS V13.01,2013-10-31 19:18:00,
2013-10-31 14:23:00,75.8,59.0,29.49,South,182,9.2,11.9,56,0.00,,,0.08,VWS V13.01,2013-10-31 19:23:00,
2013-10-31 14:28:00,76.0,59.2,29.49,SSW,202,5.4,7.6,56,0.00,,,0.08,VWS V13.01,2013-10-31 19:28:00,
2013-10-31 14:33:00,76.5,58.6,29.49,South,191,8.1,10.5,54,0.00,,,0.08,VWS V13.01,2013-10-31 19:33:00,
2013-10-31 14:38:00,76.7,57.2,29.49,SW,233,11.0,12.3,51,0.00,,,0.08,VWS V13.01,2013-10-31 19:38:00,
2013-10-31 14:43:00,76.9,56.8,29.49,South,185,8.3,8.3,50,0.00,,,0.08,VWS V13.01,2013-10-31 19:43:00,
2013-10-31 14:48:00,77.0,56.4,29.49,SW,227,22.8,22.8,49,0.00,,,0.08,VWS V13.01,2013-10-31 19:48:00,
2013-10-31 14:53:00,77.2,56.6,29.49,SSW,208,16.8,16.8,49,0.00,,,0.08,VWS V13.01,2013-10-31 19:53:00,
2013-10-31 14:58:00,77.4,56.8,29.49,WSW,251,10.1,11.0,49,0.00,,,0.08,VWS V13.01,2013-10-31 19:58:00,
2013-10-31 15:03:00,76.1,56.2,29.49,WSW,242,15.0,18.8,50,0.00,,,0.08,VWS V13.01,2013-10-31 20:03:00,
2013-10-31 15:08:00,74.9,56.1,29.49,WSW,249,6.3,10.5,52,0.00,,,0.08,VWS V13.01,2013-10-31 20:08:00,
2013-10-31 15:13:00,74.5,55.2,29.49,WSW,240,18.8,24.6,51,0.00,,,0.08,VWS V13.01,2013-10-31 20:13:00,
2013-10-31 15:18:00,73.6,54.4,29.49,WSW,237,19.7,19.7,51,0.00,,,0.08,VWS V13.01,2013-10-31 20:18:00,
2013-10-31 15:23:00,73.3,54.1,29.49,WSW,248,12.8,15.0,51,0.00,,,0.08,VWS V13.01,2013-10-31 20:23:00,
2013-10-31 15:28:00,72.9,53.7,29.52,WSW,243,15.4,15.4,51,0.00,,,0.08,VWS V13.01,2013-10-31 20:28:00,
2013-10-31 15:33:00,72.9,53.7,29.52,WSW,241,15.0,15.4,51,0.00,,,0.08,VWS V13.01,2013-10-31 20:33:00,
2013-10-31 15:38:00,72.7,53.0,29.52,WSW,243,15.0,21.5,50,0.00,,,0.08,VWS V13.01,2013-10-31 20:38:00,
2013-10-31 15:43:00,72.4,52.7,29.52,WSW,242,22.4,23.7,50,0.00,,,0.08,VWS V13.01,2013-10-31 20:43:00,
2013-10-31 15:48:00,72.2,52.5,29.52,WSW,252,12.3,12.3,50,0.00,,,0.08,VWS V13.01,2013-10-31 20:48:00,
2013-10-31 15:53:00,71.8,52.2,29.52,SW,216,21.5,21.5,50,0.00,,,0.08,VWS V13.01,2013-10-31 20:53:00,
2013-10-31 15:58:00,71.5,51.9,29.55,SW,227,22.8,22.8,50,0.00,,,0.08,VWS V13.01,2013-10-31 20:58:00,
2013-10-31 16:03:00,71.3,51.7,29.55,West,262,26.6,26.6,50,0.00,,,0.08,VWS V13.01,2013-10-31 21:03:00,
2013-10-31 16:08:00,70.9,51.4,29.55,SW,236,12.8,17.9,50,0.00,,,0.08,VWS V13.01,2013-10-31 21:08:00,
2013-10-31 16:13:00,70.6,51.0,29.55,SW,234,14.1,22.8,50,0.00,,,0.08,VWS V13.01,2013-10-31 21:13:00,
2013-10-31 16:18:00,70.2,50.7,29.55,WSW,254,14.1,21.0,50,0.00,,,0.08,VWS V13.01,2013-10-31 21:18:00,
2013-10-31 16:23:00,69.7,50.8,29.55,SW,218,25.5,25.5,51,0.00,,,0.08,VWS V13.01,2013-10-31 21:23:00,
2013-10-31 16:28:00,69.3,50.4,29.58,WSW,239,18.3,18.3,51,0.00,,,0.08,VWS V13.01,2013-10-31 21:28:00,
2013-10-31 16:33:00,68.9,50.1,29.58,WSW,237,17.4,17.4,51,0.00,,,0.08,VWS V13.01,2013-10-31 21:33:00,
2013-10-31 16:38:00,68.8,50.4,29.58,SSW,205,15.0,19.2,52,0.00,,,0.08,VWS V13.01,2013-10-31 21:38:00,
2013-10-31 16:43:00,68.6,50.3,29.58,WSW,238,22.8,22.8,52,0.00,,,0.08,VWS V13.01,2013-10-31 21:43:00,
2013-10-31 16:48:00,68.2,50.5,29.58,SW,224,19.7,19.7,53,0.00,,,0.08,VWS V13.01,2013-10-31 21:48:00,
2013-10-31 16:53:00,68.0,50.3,29.58,West,273,9.6,16.8,53,0.00,,,0.08,VWS V13.01,2013-10-31 21:53:00,
2013-10-31 16:58:00,67.9,50.6,29.61,SW,231,13.2,13.2,54,0.00,,,0.08,VWS V13.01,2013-10-31 21:58:00,
2013-10-31 17:03:00,67.7,50.5,29.61,West,270,12.3,13.2,54,0.00,,,0.08,VWS V13.01,2013-10-31 22:03:00,
2013-10-31 17:08:00,67.5,50.3,29.61,WSW,240,11.4,19.7,54,0.00,,,0.08,VWS V13.01,2013-10-31 22:08:00,
2013-10-31 17:13:00,67.0,50.3,29.61,West,261,19.7,19.7,55,0.00,,,0.08,VWS V13.01,2013-10-31 22:13:00,
2013-10-31 17:18:00,66.8,50.6,29.61,SW,235,14.1,15.0,56,0.00,,,0.08,VWS V13.01,2013-10-31 22:18:00,
2013-10-31 17:23:00,66.6,50.9,29.61,SW,231,11.0,12.3,57,0.00,,,0.08,VWS V13.01,2013-10-31 22:23:00,
2013-10-31 17:28:00,66.4,51.7,29.64,SW,227,14.5,14.5,59,0.00,,,0.08,VWS V13.01,2013-10-31 22:28:00,
2013-10-31 17:33:00,65.9,51.6,29.64,SSW,213,10.5,15.0,60,0.00,,,0.08,VWS V13.01,2013-10-31 22:33:00,
2013-10-31 17:38:00,65.5,51.7,29.64,SW,222,15.0,15.0,61,0.00,,,0.08,VWS V13.01,2013-10-31 22:38:00,
2013-10-31 17:43:00,65.0,51.7,29.64,WSW,251,15.0,15.0,62,0.00,,,0.08,VWS V13.01,2013-10-31 22:43:00,
2013-10-31 17:48:00,64.3,51.4,29.64,WSW,250,8.3,11.0,63,0.00,,,0.08,VWS V13.01,2013-10-31 22:48:00,
2013-10-31 17:53:00,63.9,51.5,29.64,SW,222,16.8,16.8,64,0.00,,,0.08,VWS V13.01,2013-10-31 22:53:00,
2013-10-31 17:58:00,63.7,51.3,29.64,WSW,241,5.8,8.1,64,0.00,,,0.08,VWS V13.01,2013-10-31 22:58:00,
2013-10-31 18:03:00,63.4,51.4,29.64,SW,230,11.4,11.4,65,0.00,,,0.08,VWS V13.01,2013-10-31 23:03:00,
2013-10-31 18:08:00,62.8,51.3,29.64,WSW,248,10.5,11.0,66,0.00,,,0.08,VWS V13.01,2013-10-31 23:08:00,
2013-10-31 18:13:00,62.5,51.4,29.67,SW,232,8.7,11.9,67,0.00,,,0.08,VWS V13.01,2013-10-31 23:13:00,
2013-10-31 18:18:00,62.3,51.6,29.67,WSW,239,6.3,8.3,68,0.00,,,0.08,VWS V13.01,2013-10-31 23:18:00,
2013-10-31 18:23:00,62.1,51.8,29.67,SW,236,7.2,8.7,69,0.00,,,0.08,VWS V13.01,2013-10-31 23:23:00,
2013-10-31 18:28:00,61.9,52.4,29.67,WSW,237,12.8,16.8,71,0.00,,,0.08,VWS V13.01,2013-10-31 23:28:00,
2013-10-31 18:33:00,61.9,52.8,29.67,SW,225,8.3,8.3,72,0.00,,,0.08,VWS V13.01,2013-10-31 23:33:00,
2013-10-31 18:38:00,61.7,52.6,29.67,West,262,8.1,8.1,72,0.00,,,0.08,VWS V13.01,2013-10-31 23:38:00,
2013-10-31 18:43:00,61.4,52.3,29.67,WSW,242,10.1,11.0,72,0.00,,,0.08,VWS V13.01,2013-10-31 23:43:00,
2013-10-31 18:48:00,61.4,52.3,29.67,West,260,11.0,11.0,72,0.00,,,0.08,VWS V13.01,2013-10-31 23:48:00,
2013-10-31 18:53:00,61.2,52.5,29.67,WSW,239,10.5,10.5,73,0.00,,,0.08,VWS V13.01,2013-10-31 23:53:00,
2013-10-31 18:58:00,61.0,51.9,29.70,SW,225,10.5,12.8,72,0.00,,,0.08,VWS V13.01,2013-10-31 23:58:00,
2013-10-31 19:03:00,61.0,51.9,29.70,WSW,255,8.3,8.3,72,0.00,,,0.08,VWS V13.01,2013-11-01 00:03:00,
2013-10-31 19:08:00,61.0,51.9,29.70,SW,235,9.6,9.6,72,0.00,,,0.08,VWS V13.01,2013-11-01 00:08:00,
2013-10-31 19:13:00,60.8,51.8,29.70,SW,230,10.5,10.5,72,0.00,,,0.08,VWS V13.01,2013-11-01 00:13:00,
2013-10-31 19:18:00,60.5,51.4,29.70,WSW,258,10.1,10.5,72,0.00,,,0.08,VWS V13.01,2013-11-01 00:18:00,
2013-10-31 19:23:00,60.3,51.6,29.70,WSW,246,8.1,10.1,73,0.00,,,0.08,VWS V13.01,2013-11-01 00:23:00,
2013-10-31 19:28:00,60.1,51.5,29.73,West,265,5.4,6.3,73,0.00,,,0.08,VWS V13.01,2013-11-01 00:28:00,
2013-10-31 19:33:00,59.6,51.3,29.73,West,271,5.8,8.1,74,0.00,,,0.08,VWS V13.01,2013-11-01 00:33:00,
2013-10-31 19:38:00,59.4,51.1,29.73,SW,235,7.6,8.1,74,0.00,,,0.08,VWS V13.01,2013-11-01 00:38:00,
2013-10-31 19:43:00,59.2,51.0,29.73,WSW,249,7.6,10.5,74,0.00,,,0.08,VWS V13.01,2013-11-01 00:43:00,
2013-10-31 19:48:00,59.2,51.3,29.73,SW,226,6.3,7.6,75,0.00,,,0.08,VWS V13.01,2013-11-01 00:48:00,
2013-10-31 19:53:00,58.9,51.0,29.73,West,266,6.3,7.2,75,0.00,,,0.08,VWS V13.01,2013-11-01 00:53:00,
2013-10-31 19:58:00,58.7,50.8,29.73,WSW,243,5.8,5.8,75,0.00,,,0.08,VWS V13.01,2013-11-01 00:58:00,
2013-10-31 20:03:00,58.5,51.0,29.73,SW,233,6.7,6.7,76,0.00,,,0.08,VWS V13.01,2013-11-01 01:03:00,
2013-10-31 20:08:00,58.1,50.6,29.73,WSW,240,4.0,6.3,76,0.00,,,0.08,VWS V13.01,2013-11-01 01:08:00,
2013-10-31 20:13:00,58.1,50.6,29.73,SW,222,3.6,3.6,76,0.00,,,0.08,VWS V13.01,2013-11-01 01:13:00,
2013-10-31 20:18:00,58.0,50.8,29.73,SW,231,4.9,4.9,77,0.00,,,0.08,VWS V13.01,2013-11-01 01:18:00,
2013-10-31 20:23:00,57.6,50.5,29.73,SSW,207,3.1,3.1,77,0.00,,,0.08,VWS V13.01,2013-11-01 01:23:00,
2013-10-31 20:28:00,57.6,50.8,29.76,SSW,213,2.7,3.1,78,0.00,,,0.08,VWS V13.01,2013-11-01 01:28:00,
2013-10-31 20:33:00,57.4,50.6,29.76,SW,223,4.0,4.0,78,0.00,,,0.08,VWS V13.01,2013-11-01 01:33:00,
2013-10-31 20:38:00,57.2,50.8,29.76,WSW,242,3.6,3.6,79,0.00,,,0.08,VWS V13.01,2013-11-01 01:38:00,
2013-10-31 20:43:00,57.1,50.6,29.76,WSW,237,3.6,4.0,79,0.00,,,0.08,VWS V13.01,2013-11-01 01:43:00,
2013-10-31 20:48:00,56.9,50.4,29.76,SW,225,4.0,4.0,79,0.00,,,0.08,VWS V13.01,2013-11-01 01:48:00,
2013-10-31 20:53:00,56.5,50.4,29.76,SW,233,2.7,2.7,80,0.00,,,0.08,VWS V13.01,2013-11-01 01:53:00,
2013-10-31 20:58:00,56.3,50.6,29.76,SW,232,4.0,4.0,81,0.00,,,0.08,VWS V13.01,2013-11-01 01:58:00,
2013-10-31 21:03:00,56.2,51.1,29.76,WSW,239,5.8,5.8,83,0.00,,,0.08,VWS V13.01,2013-11-01 02:03:00,
2013-10-31 21:08:00,56.2,51.1,29.76,WSW,238,5.4,5.4,83,0.00,,,0.08,VWS V13.01,2013-11-01 02:08:00,
2013-10-31 21:13:00,56.2,50.8,29.76,West,261,3.6,3.6,82,0.00,,,0.08,VWS V13.01,2013-11-01 02:13:00,
2013-10-31 21:18:00,56.3,50.9,29.76,WSW,251,3.6,3.6,82,0.00,,,0.08,VWS V13.01,2013-11-01 02:18:00,
2013-10-31 21:23:00,56.2,50.4,29.76,WSW,251,3.1,3.1,81,0.00,,,0.08,VWS V13.01,2013-11-01 02:23:00,
2013-10-31 21:28:00,56.2,50.8,29.76,WSW,252,0.0,3.1,82,0.00,,,0.08,VWS V13.01,2013-11-01 02:28:00,
2013-10-31 21:33:00,56.0,50.9,29.76,WNW,288,2.7,2.7,83,0.00,,,0.08,VWS V13.01,2013-11-01 02:33:00,
2013-10-31 21:38:00,55.8,50.7,29.76,WNW,303,2.7,2.7,83,0.00,,,0.08,VWS V13.01,2013-11-01 02:38:00,
2013-10-31 21:43:00,55.8,50.7,29.76,WNW,303,3.1,3.1,83,0.00,,,0.08,VWS V13.01,2013-11-01 02:43:00,
2013-10-31 21:48:00,55.6,50.9,29.76,WNW,299,0.0,0.0,84,0.00,,,0.08,VWS V13.01,2013-11-01 02:48:00,
2013-10-31 21:53:00,55.4,50.4,29.76,WNW,300,0.0,0.0,83,0.00,,,0.08,VWS V13.01,2013-11-01 02:53:00,
2013-10-31 21:58:00,55.3,50.2,29.79,West,271,0.0,0.0,83,0.00,,,0.08,VWS V13.01,2013-11-01 02:58:00,
2013-10-31 22:03:00,54.9,49.8,29.79,West,271,0.0,0.0,83,0.00,,,0.08,VWS V13.01,2013-11-01 03:03:00,
2013-10-31 22:08:00,54.4,49.6,29.79,West,271,0.0,0.0,84,0.00,,,0.08,VWS V13.01,2013-11-01 03:08:00,
2013-10-31 22:13:00,54.0,49.3,29.79,West,271,0.0,0.0,84,0.00,,,0.08,VWS V13.01,2013-11-01 03:13:00,
2013-10-31 22:18:00,53.5,49.1,29.79,SSE,150,0.0,0.0,85,0.00,,,0.08,VWS V13.01,2013-11-01 03:18:00,
2013-10-31 22:23:00,52.9,48.8,29.79,SSE,150,0.0,0.0,86,0.00,,,0.08,VWS V13.01,2013-11-01 03:23:00,
2013-10-31 22:28:00,52.6,48.8,29.79,SSE,150,0.0,0.0,87,0.00,,,0.08,VWS V13.01,2013-11-01 03:28:00,
2013-10-31 22:33:00,52.4,48.9,29.79,SSE,150,0.0,0.0,88,0.00,,,0.08,VWS V13.01,2013-11-01 03:33:00,
2013-10-31 22:38:00,52.0,48.6,29.79,SSE,150,0.0,0.0,88,0.00,,,0.08,VWS V13.01,2013-11-01 03:38:00,
2013-10-31 22:43:00,51.8,48.7,29.79,SSE,150,0.0,0.0,89,0.00,,,0.08,VWS V13.01,2013-11-01 03:43:00,
2013-10-31 22:48:00,51.7,48.8,29.79,SSE,150,0.0,0.0,90,0.00,,,0.08,VWS V13.01,2013-11-01 03:48:00,
2013-10-31 22:53:00,51.5,49.2,29.79,SSE,150,0.0,0.0,92,0.00,,,0.08,VWS V13.01,2013-11-01 03:53:00,
2013-10-31 22:58:00,51.5,50.4,29.79,SSE,150,0.0,0.0,96,0.00,,,0.08,VWS V13.01,2013-11-01 03:58:00,
2013-10-31 23:01:00,51.1,50.6,29.79,SSE,150,0.0,0.0,98,0.00,,,0.08,VWS V13.01,2013-11-01 04:01:00,
2013-10-31 23:06:00,50.9,50.9,29.79,SSE,150,0.0,0.0,100,0.00,,,0.08,VWS V13.01,2013-11-01 04:06:00,
2013-10-31 23:11:00,50.6,50.6,29.79,SSE,150,0.0,0.0,100,0.00,,,0.08,VWS V13.01,2013-11-01 04:11:00,
2013-10-31 23:16:00,50.6,50.6,29.79,SSE,150,0.0,0.0,100,0.00,,,0.08,VWS V13.01,2013-11-01 04:16:00,
2013-10-31 23:21:00,50.4,50.4,29.79,SSE,150,0.0,0.0,100,0.00,,,0.08,VWS V13.01,2013-11-01 04:21:00,
2013-10-31 23:26:00,50.2,50.2,29.82,SSE,150,0.0,0.0,100,0.00,,,0.08,VWS V13.01,2013-11-01 04:26:00,
2013-10-31 23:31:00,50.2,50.2,29.82,SSE,150,0.0,0.0,100,0.00,,,0.08,VWS V13.01,2013-11-01 04:31:00,
2013-10-31 23:36:00,49.9,49.9,29.82,SSE,150,0.0,0.0,100,0.00,,,0.08,VWS V13.01,2013-11-01 04:36:00,
2013-10-31 23:41:00,49.5,49.5,29.82,SSE,150,0.0,0.0,100,0.00,,,0.08,VWS V13.01,2013-11-01 04:41:00,
2013-10-31 23:46:00,49.3,49.3,29.82,SSE,150,0.0,0.0,100,0.00,,,0.08,VWS V13.01,2013-11-01 04:46:00,
2013-10-31 23:51:00,49.1,49.1,29.82,SSE,150,0.0,0.0,100,0.00,,,0.08,VWS V13.01,2013-11-01 04:51:00,
2013-10-31 23:56:00,49.1,49.1,29.82,SSE,150,0.0,0.0,100,0.00,,,0.08,VWS V13.01,2013-11-01 04:56:00,